createdAt,value
2022-11-15T00:02:39.959Z,77.78
2022-11-15T00:05:28.087Z,65.15
2022-11-15T00:08:15.439Z,62.60
2022-11-15T00:11:03.574Z,66.10
2022-11-15T00:13:52.055Z,63.75
2022-11-15T00:16:39.202Z,62.15
2022-11-15T00:19:26.044Z,65.90
2022-11-15T00:22:12.808Z,58.78
2022-11-15T00:24:59.634Z,63.63
2022-11-15T00:27:46.403Z,65.65
2022-11-15T00:30:35.774Z,60.60
2022-11-15T00:33:23.102Z,64.63
2022-11-15T00:36:11.851Z,59.28
2022-11-15T00:38:58.469Z,62.15
2022-11-15T00:41:45.200Z,59.30
2022-11-15T00:44:32.231Z,63.95
2022-11-15T00:47:20.488Z,59.40
2022-11-15T00:50:09.821Z,56.55
2022-11-15T00:52:59.725Z,56.15
2022-11-15T00:55:46.853Z,61.95
2022-11-15T00:58:34.063Z,62.08
2022-11-15T01:01:21.081Z,61.35
2022-11-15T01:04:09.207Z,61.13
2022-11-15T01:06:56.268Z,63.05
2022-11-15T01:09:43.197Z,61.78
2022-11-15T01:12:32.938Z,61.33
2022-11-15T01:15:19.762Z,59.83
2022-11-15T01:18:06.689Z,56.67
2022-11-15T01:20:54.909Z,58.20
2022-11-15T01:23:42.425Z,59.72
2022-11-15T01:26:29.273Z,57.92
2022-11-15T01:29:16.781Z,58.38
2022-11-15T01:32:03.418Z,60.58
2022-11-15T01:34:50.408Z,58.70
2022-11-15T01:37:38.680Z,62.35
2022-11-15T01:40:25.725Z,57.08
2022-11-15T01:43:23.419Z,60.38
2022-11-15T01:46:24.564Z,57.50
2022-11-15T01:49:16.624Z,60.08
2022-11-15T01:54:58.655Z,58.30
2022-11-15T01:57:48.521Z,58.00
2022-11-15T02:00:35.549Z,63.25
2022-11-15T02:03:25.093Z,59.28
2022-11-15T02:06:12.210Z,64.15
2022-11-15T02:08:59.659Z,61.92
2022-11-15T02:11:49.729Z,61.55
2022-11-15T02:14:37.948Z,57.08
2022-11-15T02:17:45.765Z,55.70
2022-11-15T02:21:08.604Z,59.92
2022-11-15T02:24:25.897Z,57.70
2022-11-15T02:27:55.989Z,58.90
2022-11-15T02:30:48.626Z,62.67
2022-11-15T02:33:44.201Z,58.25
2022-11-15T02:36:41.599Z,53.53
2022-11-15T02:39:34.629Z,59.75
2022-11-15T02:42:44.513Z,55.55
2022-11-15T02:45:35.422Z,55.53
2022-11-15T02:48:24.579Z,56.92
2022-11-15T02:51:12.115Z,61.50
2022-11-15T02:53:59.069Z,61.45
2022-11-15T02:56:48.477Z,56.53
2022-11-15T03:00:05.507Z,57.63
2022-11-15T03:03:18.402Z,61.15
2022-11-15T03:06:17.133Z,55.55
2022-11-15T03:09:08.948Z,61.40
2022-11-15T03:12:08.521Z,61.92
2022-11-15T03:15:00.088Z,53.00
2022-11-15T03:17:53.249Z,52.38
2022-11-15T03:20:41.160Z,55.55
2022-11-15T03:23:32.581Z,55.40
2022-11-15T03:26:23.605Z,59.07
2022-11-15T03:29:16.017Z,58.17
2022-11-15T03:32:07.691Z,59.38
2022-11-15T03:34:58.944Z,58.92
2022-11-15T03:37:52.328Z,60.83
2022-11-15T03:40:42.488Z,71.22
2022-11-15T03:43:38.415Z,60.63
2022-11-15T03:46:29.997Z,62.88
2022-11-15T03:49:22.015Z,61.30
2022-11-15T03:52:08.799Z,63.70
2022-11-15T03:54:57.377Z,55.63
2022-11-15T03:57:46.210Z,57.20
2022-11-15T04:00:33.461Z,59.90
2022-11-15T04:03:20.419Z,55.35
2022-11-15T04:06:07.780Z,52.65
2022-11-15T04:08:54.604Z,55.53
2022-11-15T04:11:41.608Z,56.97
2022-11-15T04:14:29.789Z,60.17
2022-11-15T04:17:16.537Z,60.15
2022-11-15T04:20:20.888Z,56.60
2022-11-15T04:23:26.759Z,61.10
2022-11-15T04:26:16.671Z,55.03
2022-11-15T04:29:21.249Z,54.88
2022-11-15T04:32:09.638Z,60.30
2022-11-15T04:34:56.759Z,60.65
2022-11-15T04:37:48.936Z,58.00
2022-11-15T04:40:36.195Z,57.38
2022-11-15T04:43:22.875Z,58.28
2022-11-15T04:46:09.969Z,58.10
2022-11-15T04:48:59.279Z,56.33
2022-11-15T04:51:46.695Z,54.20
2022-11-15T04:54:33.856Z,60.78
2022-11-15T04:57:20.929Z,59.45
2022-11-15T05:00:10.323Z,56.10
2022-11-15T05:03:23.143Z,57.15
2022-11-15T05:06:11.527Z,57.65
2022-11-15T05:08:58.428Z,58.63
2022-11-15T05:11:45.486Z,58.70
2022-11-15T05:14:32.215Z,53.65
2022-11-15T05:17:18.829Z,54.08
2022-11-15T05:20:06.508Z,57.28
2022-11-15T05:22:55.296Z,56.38
2022-11-15T05:25:42.242Z,54.75
2022-11-15T05:28:29.549Z,56.13
2022-11-15T05:31:18.022Z,59.03
2022-11-15T05:34:07.635Z,59.13
2022-11-15T05:36:54.595Z,55.83
2022-11-15T05:39:42.809Z,59.35
2022-11-15T05:42:31.596Z,54.95
2022-11-15T05:45:23.903Z,59.42
2022-11-15T05:48:14.509Z,62.47
2022-11-15T05:51:02.070Z,58.92
2022-11-15T05:53:49.435Z,54.83
2022-11-15T05:56:37.651Z,57.88
2022-11-15T05:59:24.775Z,58.78
2022-11-15T06:02:11.935Z,59.45
2022-11-15T06:04:58.573Z,55.40
2022-11-15T06:07:45.861Z,59.42
2022-11-15T06:10:32.562Z,61.33
2022-11-15T06:13:20.950Z,59.22
2022-11-15T06:16:08.291Z,60.35
2022-11-15T06:18:55.508Z,61.45
2022-11-15T06:21:42.357Z,57.05
2022-11-15T06:24:29.045Z,58.15
2022-11-15T06:27:15.730Z,56.13
2022-11-15T06:30:04.546Z,55.05
2022-11-15T06:32:51.507Z,54.20
2022-11-15T06:35:38.857Z,61.75
2022-11-15T06:38:25.782Z,57.20
2022-11-15T06:41:14.803Z,57.22
2022-11-15T06:44:01.835Z,60.63
2022-11-15T06:46:50.255Z,55.67
2022-11-15T06:49:37.497Z,57.75
2022-11-15T06:52:24.526Z,58.70
2022-11-15T06:55:11.600Z,59.03
2022-11-15T06:57:58.380Z,56.42
2022-11-15T07:00:46.030Z,59.28
2022-11-15T07:03:36.303Z,62.28
2022-11-15T07:06:22.907Z,61.55
2022-11-15T07:09:09.847Z,56.70
2022-11-15T07:11:56.600Z,56.70
2022-11-15T07:14:43.292Z,58.75
2022-11-15T07:17:30.039Z,57.30
2022-11-15T07:20:18.444Z,59.47
2022-11-15T07:23:06.831Z,58.60
2022-11-15T07:25:53.594Z,56.33
2022-11-15T07:28:41.029Z,53.72
2022-11-15T07:31:27.765Z,59.33
2022-11-15T07:34:14.594Z,56.17
2022-11-15T07:37:03.170Z,57.55
2022-11-15T07:39:50.256Z,55.90
2022-11-15T07:42:55.334Z,54.10
2022-11-15T07:45:47.207Z,52.85
2022-11-15T07:48:43.991Z,54.75
2022-11-15T07:51:31.844Z,54.60
2022-11-15T07:54:19.902Z,58.42
2022-11-15T07:57:07.905Z,55.08
2022-11-15T07:59:54.970Z,58.67
2022-11-15T08:02:42.237Z,56.63
2022-11-15T08:05:28.957Z,57.40
2022-11-15T08:08:16.058Z,56.70
2022-11-15T08:11:04.833Z,53.65
2022-11-15T08:13:52.595Z,55.72
2022-11-15T08:16:39.499Z,54.58
2022-11-15T08:19:26.486Z,57.42
2022-11-15T08:22:13.437Z,54.65
2022-11-15T08:25:00.236Z,58.60
2022-11-15T08:27:48.614Z,55.95
2022-11-15T08:30:39.158Z,55.50
2022-11-15T08:33:26.432Z,54.65
2022-11-15T08:36:16.171Z,55.97
2022-11-15T08:39:03.106Z,52.88
2022-11-15T08:41:50.256Z,55.78
2022-11-15T08:44:38.509Z,58.55
2022-11-15T08:47:25.558Z,53.42
2022-11-15T08:50:12.520Z,49.70
2022-11-15T08:52:59.733Z,52.53
2022-11-15T08:55:46.475Z,54.58
2022-11-15T08:58:34.128Z,53.35
2022-11-15T09:01:23.681Z,48.95
2022-11-15T09:04:10.596Z,48.30
2022-11-15T09:06:57.853Z,49.60
2022-11-15T09:09:45.037Z,48.40
2022-11-15T09:12:32.023Z,47.13
2022-11-15T09:15:20.026Z,48.85
2022-11-15T09:18:08.669Z,47.15
2022-11-15T09:20:58.899Z,50.92
2022-11-15T09:23:46.039Z,44.40
2022-11-15T09:26:33.081Z,48.42
2022-11-15T09:29:20.239Z,45.35
2022-11-15T09:32:08.335Z,47.20
2022-11-15T09:34:56.633Z,43.58
2022-11-15T09:37:43.262Z,46.80
2022-11-15T09:40:32.107Z,47.75
2022-11-15T09:43:41.567Z,48.08
2022-11-15T09:46:38.639Z,45.05
2022-11-15T09:49:25.690Z,45.28
2022-11-15T09:52:13.270Z,39.33
2022-11-15T09:57:40.951Z,42.55
2022-11-15T10:03:14.600Z,43.00
2022-11-15T10:05:44.788Z,39.33
2022-11-15T10:08:26.787Z,40.67
2022-11-15T10:13:49.191Z,37.42
2022-11-15T10:19:03.343Z,39.03
2022-11-15T10:21:43.100Z,38.20
2022-11-15T10:24:20.791Z,34.83
2022-11-15T11:07:28.580Z,28.80
2022-11-15T11:10:13.332Z,32.47
2022-11-15T11:12:51.331Z,32.35
2022-11-15T11:15:20.560Z,31.23
2022-11-15T11:17:59.808Z,31.92
2022-11-15T11:20:35.043Z,28.77
2022-11-15T11:23:16.462Z,28.50
2022-11-15T11:25:54.215Z,30.00
2022-11-15T13:06:46.616Z,28.30
2022-11-15T13:09:56.467Z,29.40
2022-11-15T13:12:52.850Z,28.45
2022-11-15T13:15:57.402Z,29.88
2022-11-15T13:21:02.737Z,27.85
2022-11-15T13:26:12.156Z,27.20
2022-11-15T13:28:45.432Z,27.98
2022-11-15T14:34:23.602Z,34.83
2022-11-15T14:36:51.946Z,32.78
2022-11-15T14:39:20.262Z,31.23
2022-11-15T14:44:21.006Z,30.38
2022-11-15T14:46:49.608Z,31.80
2022-11-15T14:49:19.295Z,30.70
2022-11-15T14:54:15.719Z,30.30
2022-11-15T14:56:44.073Z,29.58
2022-11-15T14:59:14.688Z,33.35
2022-11-15T15:01:45.456Z,32.03
2022-11-15T15:04:13.731Z,30.05
2022-11-15T19:21:04.093Z,37.25
2022-11-15T19:23:35.069Z,38.42
2022-11-15T19:26:11.405Z,36.13
2022-11-15T19:28:40.321Z,40.10
2022-11-15T19:31:12.039Z,106.68
2022-11-15T19:36:12.074Z,44.83
2022-11-15T19:38:40.983Z,41.60
2022-11-15T19:41:13.317Z,39.33
2022-11-15T19:43:41.968Z,40.60
2022-11-15T19:46:13.336Z,37.33
2022-11-15T19:48:41.768Z,50.70
2022-11-15T19:51:13.423Z,45.25
2022-11-15T19:53:42.514Z,45.50
2022-11-15T19:56:15.962Z,45.65
2022-11-15T19:58:47.433Z,43.70
2022-11-15T20:01:19.133Z,45.83
2022-11-15T20:06:18.238Z,40.92
2022-11-15T20:08:47.944Z,45.35
2022-11-15T20:11:18.509Z,43.03
2022-11-15T20:13:47.282Z,47.80
2022-11-15T20:16:18.342Z,42.97
2022-11-15T20:18:47.285Z,45.95
2022-11-15T20:21:16.209Z,50.40
2022-11-15T20:23:44.564Z,47.80
2022-11-15T20:26:15.940Z,50.33
2022-11-15T20:28:45.814Z,54.13
2022-11-15T20:31:14.214Z,48.47
2022-11-15T20:33:45.796Z,53.47
2022-11-15T20:36:15.985Z,47.60
2022-11-15T20:38:44.993Z,50.83
2022-11-15T20:41:13.730Z,53.60
2022-11-15T20:43:43.548Z,54.92
2022-11-15T20:46:15.850Z,53.45
2022-11-15T20:48:44.190Z,50.65
2022-11-15T20:51:14.384Z,50.25
2022-11-15T20:53:43.559Z,56.65
2022-11-15T20:56:13.772Z,53.03
2022-11-15T20:58:45.839Z,46.20
2022-11-15T21:01:17.924Z,45.42
2022-11-15T21:03:46.336Z,47.45
2022-11-15T21:06:14.666Z,39.35
2022-11-15T21:09:00.053Z,47.05
2022-11-15T21:11:48.808Z,42.63
2022-11-15T21:14:17.222Z,42.38
